Time;durP1;ratioP1;P1;durP2;ratioP2;P2;SDS_P1;SDS_P2;PMS_P1;PMS_P2;Temp;Humidity;BMP_temperature;BMP_pressure;BME280_temperature;BME280_humidity;BME280_pressure;Samples;Min_cycle;Max_cycle;Signal;HPM_P1;HPM_P2
2023/06/11 00:01:51;;;;;;;10.25;4.20;;;;;;;-146.27;44.75;80683.09;5025605;28;20017;-67
2023/06/11 00:04:25;;;;;;;7.93;3.72;;;;;;;-146.27;45.37;80681.09;5024847;28;20393;-67
2023/06/11 00:06:53;;;;;;;7.43;3.92;;;;;;;-146.27;45.55;80689.13;5020934;28;20112;-67
2023/06/11 00:09:19;;;;;;;9.52;3.92;;;;;;;-146.27;45.69;80705.19;5020927;28;20046;-67
2023/06/11 00:11:44;;;;;;;9.23;3.70;;;;;;;-146.27;45.82;80737.31;5028594;28;20077;-68
2023/06/11 00:14:10;;;;;;;8.10;3.83;;;;;;;-146.27;45.78;80743.34;5026170;28;20483;-67
2023/06/11 00:16:37;;;;;;;6.60;3.97;;;;;;;-146.27;46.46;80749.34;5031195;28;20032;-67
2023/06/11 00:19:04;;;;;;;8.15;3.90;;;;;;;-146.27;47.00;80671.03;5025021;28;20416;-68
2023/06/11 00:21:29;;;;;;;6.28;4.22;;;;;;;-146.27;46.38;80777.47;5019524;28;20499;-67
2023/06/11 00:23:56;;;;;;;10.35;3.83;;;;;;;-146.27;46.39;80753.38;5024621;28;20033;-68
2023/06/11 00:26:22;;;;;;;8.77;4.10;;;;;;;-146.27;46.54;80769.44;5029257;28;20033;-67
2023/06/11 00:28:47;;;;;;;5.13;3.90;;;;;;;-146.27;46.24;80717.22;5026048;28;20037;-67
2023/06/11 00:31:13;;;;;;;5.78;4.15;;;;;;;-146.27;46.43;80713.22;5034276;28;20028;-67
2023/06/11 00:33:38;;;;;;;5.95;3.85;;;;;;;-146.27;46.61;80761.41;5028308;28;20108;-67
2023/06/11 00:36:04;;;;;;;8.38;4.00;;;;;;;-146.27;46.52;80723.25;5023655;28;20039;-67
2023/06/11 00:38:30;;;;;;;9.68;4.10;;;;;;;-146.27;46.36;80745.34;5028005;28;20375;-67
2023/06/11 00:40:56;;;;;;;7.85;4.15;;;;;;;-146.27;47.36;80705.19;5031452;28;20108;-68
2023/06/11 00:43:23;;;;;;;6.68;4.40;;;;;;;-146.27;46.97;80745.34;5028744;28;20033;-69
2023/06/11 00:45:50;;;;;;;9.00;4.13;;;;;;;-146.27;47.82;80753.38;5025380;28;20084;-67
2023/06/11 00:48:19;;;;;;;7.30;4.10;;;;;;;-146.27;47.42;80783.50;5028582;28;20072;-67
2023/06/11 00:50:47;;;;;;;9.25;4.40;;;;;;;-146.27;47.27;80725.25;5018081;28;20034;-67
2023/06/11 00:53:12;;;;;;;5.28;4.15;;;;;;;-146.27;47.03;80725.25;5021998;28;20493;-67
2023/06/11 00:55:38;;;;;;;8.25;3.80;;;;;;;-146.27;47.90;80755.38;5012191;28;20026;-67
2023/06/11 00:58:13;;;;;;;7.13;4.40;;;;;;;-146.27;47.36;80725.25;5022038;28;20079;-68
2023/06/11 01:00:52;;;;;;;12.65;4.78;;;;;;;-146.27;47.62;80743.34;5029785;28;20586;-68
2023/06/11 01:03:22;;;;;;;7.18;4.32;;;;;;;-146.27;47.23;80761.41;5025224;28;20021;-67
2023/06/11 01:06:01;;;;;;;6.38;4.13;;;;;;;-146.27;47.99;80799.56;5031003;28;20037;-67
2023/06/11 01:08:27;;;;;;;7.70;4.28;;;;;;;-146.27;47.45;80753.38;5022899;28;20559;-68
2023/06/11 01:10:52;;;;;;;7.70;4.22;;;;;;;-146.27;48.55;80729.28;5028276;28;20045;-68
2023/06/11 01:13:17;;;;;;;8.00;4.65;;;;;;;-146.27;47.85;80771.44;5025643;28;20079;-68
2023/06/11 01:15:43;;;;;;;7.07;4.72;;;;;;;-146.27;48.55;80743.34;5027855;28;20033;-68
2023/06/11 01:18:23;;;;;;;8.20;4.53;;;;;;;-146.27;48.45;80785.50;5025464;28;20559;-67
2023/06/11 01:21:12;;;;;;;5.18;4.47;;;;;;;-146.27;48.22;80767.44;5030293;28;20029;-68
2023/06/11 01:23:46;;;;;;;7.22;4.18;;;;;;;-146.27;48.48;80795.53;5027415;28;20033;-68
2023/06/11 01:26:28;;;;;;;8.82;4.72;;;;;;;-146.27;48.73;80823.66;5014714;28;20029;-68
2023/06/11 01:28:55;;;;;;;6.22;4.55;;;;;;;-146.27;49.60;80875.84;5025512;28;20033;-68
2023/06/11 01:31:22;;;;;;;6.70;4.95;;;;;;;-146.27;48.70;80801.56;5031024;28;20025;-67
2023/06/11 01:33:48;;;;;;;8.23;4.53;;;;;;;-146.27;49.65;80805.56;5025873;28;20057;-68
2023/06/11 01:36:14;;;;;;;8.35;4.47;;;;;;;-146.27;49.25;80825.66;5025966;28;20068;-67
2023/06/11 01:38:44;;;;;;;7.15;5.15;;;;;;;-146.27;49.01;80841.72;5038486;28;20245;-68
2023/06/11 01:41:14;;;;;;;9.88;5.35;;;;;;;-146.27;49.12;80801.56;5012031;28;20108;-68
2023/06/11 01:43:40;;;;;;;7.68;4.97;;;;;;;-146.27;49.79;80889.91;5032345;28;20099;-67
2023/06/11 01:46:06;;;;;;;8.05;5.03;;;;;;;-146.27;50.93;80853.78;5030578;28;20540;-67
2023/06/11 01:48:32;;;;;;;14.50;4.72;;;;;;;-146.27;50.30;80871.84;5030773;28;20033;-67
2023/06/11 01:50:57;;;;;;;7.32;4.70;;;;;;;-146.27;50.05;80883.88;5035405;28;20040;-68
2023/06/11 01:53:22;;;;;;;8.32;5.20;;;;;;;-146.27;50.49;80881.88;5030262;28;20096;-68
2023/06/11 01:55:48;;;;;;;7.72;4.60;;;;;;;-146.27;50.37;80899.97;5036672;28;20036;-67
2023/06/11 01:58:13;;;;;;;6.53;5.18;;;;;;;-146.27;49.87;80901.97;5030045;28;20497;-68
2023/06/11 02:00:39;;;;;;;6.00;4.72;;;;;;;-146.27;50.86;80893.94;5030864;28;20064;-67
2023/06/11 02:03:05;;;;;;;10.35;5.05;;;;;;;-146.27;50.88;80881.88;5029325;28;20040;-67
2023/06/11 02:05:31;;;;;;;11.95;5.20;;;;;;;-146.27;51.31;80978.28;5027285;28;20111;-68
2023/06/11 02:07:56;;;;;;;8.05;4.90;;;;;;;-146.27;52.38;80920.03;5025852;28;20409;-67
2023/06/11 02:10:22;;;;;;;9.25;5.13;;;;;;;-146.27;52.81;80962.22;5025519;28;20505;-68
2023/06/11 02:12:47;;;;;;;7.90;4.88;;;;;;;-146.27;53.45;80962.22;5017639;28;20033;-68
2023/06/11 02:15:13;;;;;;;6.50;4.97;;;;;;;-146.27;55.09;81022.44;5028204;28;20032;-68
2023/06/11 02:17:38;;;;;;;9.55;5.07;;;;;;;-146.27;54.98;81006.38;5025183;28;20116;-67
2023/06/11 02:20:08;;;;;;;8.70;5.18;;;;;;;-146.27;54.47;81006.38;5028287;28;20064;-68
2023/06/11 02:22:34;;;;;;;7.95;5.85;;;;;;;-146.27;54.02;81002.38;5026509;28;20045;-67
2023/06/11 02:25:00;;;;;;;7.18;5.22;;;;;;;-146.27;54.83;80998.34;5029331;28;20089;-67
2023/06/11 02:27:25;;;;;;;6.63;5.88;;;;;;;-146.27;53.79;81022.44;5028748;28;20033;-68
2023/06/11 02:29:51;;;;;;;7.57;5.55;;;;;;;-146.27;54.92;81048.56;5025766;28;20103;-68
2023/06/11 02:32:16;;;;;;;9.25;5.53;;;;;;;-146.27;54.53;81010.41;5029856;28;20466;-67
2023/06/11 02:34:41;;;;;;;9.68;6.15;;;;;;;-146.27;52.69;81010.41;5027359;28;20140;-67
2023/06/11 02:37:08;;;;;;;9.40;5.20;;;;;;;-146.27;53.26;80974.25;5019606;28;20467;-68
2023/06/11 02:39:33;;;;;;;7.25;5.43;;;;;;;-146.27;53.77;80978.28;5019881;28;20029;-67
2023/06/11 02:41:58;;;;;;;9.73;5.78;;;;;;;-146.27;53.73;81000.34;5025430;28;20384;-68
2023/06/11 02:44:24;;;;;;;7.55;5.45;;;;;;;-146.27;53.66;81004.38;5023202;28;20500;-67
2023/06/11 02:46:49;;;;;;;13.80;6.18;;;;;;;-146.27;53.53;81028.47;5025509;28;20029;-68
2023/06/11 02:49:15;;;;;;;10.27;6.20;;;;;;;-146.27;53.95;81028.47;5026869;28;20025;-67
2023/06/11 02:51:40;;;;;;;10.90;5.70;;;;;;;-146.27;54.85;81034.50;5028656;28;20072;-67
2023/06/11 02:54:06;;;;;;;9.00;5.63;;;;;;;-146.27;55.26;81038.50;5017993;28;20026;-68
2023/06/11 02:56:32;;;;;;;7.18;5.70;;;;;;;-146.27;56.18;81050.56;5021392;28;20034;-67
2023/06/11 02:58:57;;;;;;;7.50;6.07;;;;;;;-146.27;56.54;81094.75;5018383;28;20033;-68
2023/06/11 03:01:23;;;;;;;10.70;6.20;;;;;;;-146.27;56.19;81066.63;5026602;28;20052;-67
2023/06/11 03:03:48;;;;;;;6.97;5.55;;;;;;;-146.27;56.59;81102.78;5022946;28;20396;-68
2023/06/11 03:06:14;;;;;;;8.70;6.20;;;;;;;-146.27;57.00;81118.84;5023020;28;20026;-67
2023/06/11 03:08:39;;;;;;;6.97;5.80;;;;;;;-146.27;57.32;81128.88;5018144;28;20028;-67
2023/06/11 03:11:05;;;;;;;10.70;5.82;;;;;;;-146.27;58.01;81171.06;5027272;28;20060;-67
2023/06/11 03:13:30;;;;;;;9.90;5.88;;;;;;;-146.27;58.89;81163.03;5027192;28;20678;-68
2023/06/11 03:15:55;;;;;;;7.57;5.68;;;;;;;-146.27;58.15;81199.16;5031098;28;20037;-70
2023/06/11 03:18:21;;;;;;;7.32;6.22;;;;;;;-146.27;58.50;81193.16;5032142;28;20025;-67
2023/06/11 03:20:48;;;;;;;8.75;5.95;;;;;;;-146.27;58.82;81175.06;5032152;28;20029;-67
2023/06/11 03:23:14;;;;;;;8.98;6.90;;;;;;;-146.27;58.67;81167.03;5025163;28;20032;-68
2023/06/11 03:25:41;;;;;;;13.13;6.63;;;;;;;-146.27;58.91;81177.06;5031369;28;20473;-67
2023/06/11 03:28:06;;;;;;;9.77;6.70;;;;;;;-146.27;59.42;81175.06;5031783;28;20385;-67
2023/06/11 03:30:32;;;;;;;8.88;6.78;;;;;;;-146.27;59.81;81227.28;5031126;28;20033;-67
2023/06/11 03:32:57;;;;;;;8.30;6.40;;;;;;;-146.27;59.90;81235.31;5029163;28;20024;-67
2023/06/11 03:35:23;;;;;;;10.13;6.80;;;;;;;-146.27;60.44;81195.16;5032103;28;20029;-68
2023/06/11 03:37:48;;;;;;;9.43;7.10;;;;;;;-146.27;60.17;81177.06;5030967;28;20025;-67
2023/06/11 03:40:14;;;;;;;7.97;6.30;;;;;;;-146.27;61.07;81199.16;5032442;28;20025;-67
2023/06/11 03:42:39;;;;;;;7.90;6.35;;;;;;;-146.27;61.63;81215.22;5030884;28;20030;-68
2023/06/11 03:45:05;;;;;;;11.75;7.55;;;;;;;-146.27;62.10;81213.22;5036002;28;20021;-68
2023/06/11 03:47:30;;;;;;;9.80;6.88;;;;;;;-146.27;61.71;81203.19;5048065;28;20036;-68
2023/06/11 03:49:56;;;;;;;10.45;7.28;;;;;;;-146.27;62.04;81227.28;5038617;28;20021;-68
2023/06/11 03:52:21;;;;;;;7.97;6.60;;;;;;;-146.27;62.40;81179.09;5030836;28;20128;-68
2023/06/11 03:54:46;;;;;;;10.77;6.90;;;;;;;-146.27;62.68;81207.19;5032557;28;20052;-68
2023/06/11 03:57:12;;;;;;;9.80;7.20;;;;;;;-146.27;62.80;81211.22;5032683;28;20022;-68
2023/06/11 03:59:38;;;;;;;12.70;6.93;;;;;;;-146.27;63.29;81247.38;5031038;28;20040;-68
2023/06/11 04:02:04;;;;;;;10.25;7.03;;;;;;;-146.27;63.48;81233.31;5030017;28;20108;-68
2023/06/11 04:04:29;;;;;;;11.15;7.20;;;;;;;-146.27;63.14;81227.28;5026863;28;20741;-68
2023/06/11 04:06:55;;;;;;;9.30;7.28;;;;;;;-146.27;63.11;81199.16;5030828;28;20036;-66
2023/06/11 04:09:20;;;;;;;10.88;7.35;;;;;;;-146.27;63.57;81215.22;5029312;28;20515;-68
2023/06/11 04:11:46;;;;;;;12.13;7.38;;;;;;;-146.27;64.07;81203.19;5028018;28;20108;-68
2023/06/11 04:14:11;;;;;;;15.10;7.05;;;;;;;-146.27;64.71;81215.22;5030513;28;20072;-68
2023/06/11 04:16:36;;;;;;;13.65;6.53;;;;;;;-146.27;64.65;81179.09;5032279;28;20029;-68
2023/06/11 04:19:01;;;;;;;8.02;6.72;;;;;;;-146.27;65.66;81199.16;5030466;28;20527;-68
2023/06/11 04:21:27;;;;;;;11.52;7.20;;;;;;;-146.27;66.45;81175.06;5026889;28;20551;-68
2023/06/11 04:23:52;;;;;;;9.05;7.82;;;;;;;-146.27;66.52;81183.09;5030849;28;20577;-67
2023/06/11 04:26:19;;;;;;;9.80;8.00;;;;;;;-146.27;65.01;81171.06;5030405;28;20489;-68
2023/06/11 04:28:45;;;;;;;10.02;7.72;;;;;;;-146.27;65.30;81138.91;5027445;28;20452;-68
2023/06/11 04:31:11;;;;;;;10.35;7.97;;;;;;;-146.27;65.95;81159.00;5031121;28;20026;-68
2023/06/11 04:33:37;;;;;;;16.65;7.32;;;;;;;-146.27;66.39;81144.94;5031028;28;20060;-68
2023/06/11 04:36:07;;;;;;;9.07;7.45;;;;;;;-146.27;66.48;81138.91;5026734;28;20437;-68
2023/06/11 04:38:34;;;;;;;11.95;7.90;;;;;;;-146.27;65.84;81140.94;5026095;28;20040;-68
2023/06/11 04:41:00;;;;;;;8.60;7.15;;;;;;;-146.27;65.29;81118.84;5024482;28;20393;-68
2023/06/11 04:43:25;;;;;;;8.68;7.40;;;;;;;-146.27;67.03;81100.75;5022411;28;20028;-68
2023/06/11 04:45:55;;;;;;;9.40;7.35;;;;;;;-146.27;66.28;81074.66;5031914;28;20034;-68
2023/06/11 04:48:23;;;;;;;12.98;8.30;;;;;;;-146.27;65.76;81046.53;5020797;28;20130;-68
2023/06/11 04:50:50;;;;;;;10.95;8.27;;;;;;;-146.27;64.23;81034.50;5029578;28;20021;-68
2023/06/11 04:53:21;;;;;;;12.68;8.32;;;;;;;-146.27;65.54;81026.47;5029934;28;20470;-66
2023/06/11 04:55:49;;;;;;;11.13;8.00;;;;;;;-146.27;66.53;80994.34;5028641;28;20021;-70
2023/06/11 04:58:15;;;;;;;13.80;8.32;;;;;;;-146.27;67.35;81004.38;5030281;28;20025;-70
2023/06/11 05:00:40;;;;;;;10.27;8.40;;;;;;;-146.27;66.75;81018.44;5025249;28;20643;-70
2023/06/11 05:03:06;;;;;;;11.05;8.43;;;;;;;-146.27;66.00;81022.44;5030025;28;20026;-70
2023/06/11 05:05:32;;;;;;;9.20;7.80;;;;;;;-146.27;67.09;80976.25;5029786;28;20409;-70
2023/06/11 05:07:57;;;;;;;11.52;7.97;;;;;;;-146.27;67.48;80970.25;5026688;28;20104;-70
2023/06/11 05:10:22;;;;;;;12.60;8.95;;;;;;;-146.27;67.28;80942.13;5038035;28;20136;-70
2023/06/11 05:12:48;;;;;;;9.38;8.30;;;;;;;-146.27;66.80;80932.09;5029056;28;20112;-70
2023/06/11 05:15:13;;;;;;;9.65;8.48;;;;;;;-146.27;66.62;80930.06;5030781;28;20045;-70
2023/06/11 05:17:39;;;;;;;14.90;9.05;;;;;;;-146.27;67.13;80895.94;5026041;28;20540;-70
2023/06/11 05:20:05;;;;;;;14.10;8.95;;;;;;;-146.27;67.14;80901.97;5031315;28;20021;-70
2023/06/11 05:22:31;;;;;;;11.38;8.98;;;;;;;-146.27;67.83;80877.88;5029851;28;20037;-70
2023/06/11 05:24:56;;;;;;;12.10;8.82;;;;;;;-146.27;68.63;80823.66;5031323;28;20059;-70
2023/06/11 05:27:23;;;;;;;10.93;8.38;;;;;;;-146.27;67.93;80841.72;5025023;28;20041;-70
2023/06/11 05:29:48;;;;;;;13.68;8.10;;;;;;;-146.27;68.08;80807.59;5027417;28;20481;-70
2023/06/11 05:32:14;;;;;;;11.82;8.98;;;;;;;-146.27;66.99;80821.63;5031113;28;20436;-71
2023/06/11 05:34:41;;;;;;;10.77;8.73;;;;;;;-146.27;66.44;80797.53;5028080;28;20029;-70
2023/06/11 05:37:06;;;;;;;11.15;8.90;;;;;;;-146.27;65.98;80773.44;5017219;28;20397;-70
2023/06/11 05:39:31;;;;;;;12.55;9.13;;;;;;;-146.27;65.79;80777.47;5026001;28;20025;-70
2023/06/11 05:41:57;;;;;;;15.82;9.65;;;;;;;-146.27;67.31;80705.19;5029412;28;20059;-70
2023/06/11 05:44:22;;;;;;;18.20;8.98;;;;;;;-146.27;66.43;80713.22;5027070;28;20078;-70
2023/06/11 05:46:48;;;;;;;11.65;8.52;;;;;;;-146.27;66.52;80665.03;5023992;28;20481;-70
2023/06/11 05:49:13;;;;;;;14.15;8.95;;;;;;;-146.27;66.53;80663.00;5026646;28;20473;-71
2023/06/11 05:51:39;;;;;;;9.77;8.25;;;;;;;-146.27;66.15;80650.97;5030028;28;20141;-70
2023/06/11 05:54:04;;;;;;;12.32;9.20;;;;;;;-146.27;66.18;80602.78;5021969;28;20395;-70
2023/06/11 05:56:30;;;;;;;13.15;8.75;;;;;;;-146.27;66.87;80574.66;5024553;28;20033;-70
2023/06/11 05:58:55;;;;;;;13.65;8.73;;;;;;;-146.27;65.68;80574.66;5029620;28;20029;-70
2023/06/11 06:01:21;;;;;;;16.38;8.45;;;;;;;-146.27;65.06;80552.56;5026913;28;20033;-70
2023/06/11 06:03:47;;;;;;;13.30;8.48;;;;;;;-146.27;66.43;80536.50;5030288;28;20030;-70
2023/06/11 06:06:12;;;;;;;11.82;8.55;;;;;;;-146.27;65.73;80524.47;5023467;28;20076;-70
2023/06/11 06:08:38;;;;;;;10.00;8.85;;;;;;;-146.27;65.03;80504.38;5016250;28;20491;-70
2023/06/11 06:11:03;;;;;;;12.88;8.55;;;;;;;-146.27;65.29;80468.25;5019839;28;20085;-70
2023/06/11 06:13:28;;;;;;;12.07;8.75;;;;;;;-146.27;65.11;80456.19;5031835;28;20048;-70
2023/06/11 06:15:54;;;;;;;11.88;8.68;;;;;;;-146.27;65.80;80383.91;5028300;28;20104;-70
2023/06/11 06:18:20;;;;;;;12.68;8.30;;;;;;;-146.27;64.09;80381.91;5028950;28;20052;-70
2023/06/11 06:20:46;;;;;;;12.80;8.25;;;;;;;-146.27;63.98;80333.72;5023762;28;20104;-69
2023/06/11 06:23:11;;;;;;;11.93;9.00;;;;;;;-146.27;62.68;80327.69;5027793;28;20449;-70
2023/06/11 06:25:38;;;;;;;13.13;7.53;;;;;;;-146.27;63.65;80271.47;5020260;28;20034;-71
2023/06/11 06:28:04;;;;;;;12.00;8.10;;;;;;;-146.27;62.42;80215.25;5026739;28;20067;-71
2023/06/11 06:30:32;;;;;;;10.13;8.25;;;;;;;-146.27;61.99;80183.13;5026797;28;20481;-71
2023/06/11 06:32:57;;;;;;;10.48;7.40;;;;;;;-146.27;61.38;80114.88;5027250;28;20276;-71
2023/06/11 06:35:23;;;;;;;11.48;8.10;;;;;;;-146.27;61.46;80147.00;5029773;28;20095;-71
2023/06/11 06:37:48;;;;;;;11.65;8.73;;;;;;;-146.27;59.59;80126.94;5029858;28;20060;-71
2023/06/11 06:40:13;;;;;;;10.82;8.07;;;;;;;-146.27;59.81;80070.72;5037324;28;20071;-71
2023/06/11 06:42:39;;;;;;;9.38;6.68;;;;;;;-146.27;59.47;80070.72;5028752;28;20044;-71
2023/06/11 06:45:05;;;;;;;13.13;7.80;;;;;;;-146.27;59.02;80074.72;5029075;28;20543;-71
2023/06/11 06:47:30;;;;;;;10.60;7.93;;;;;;;-146.27;58.69;79978.38;5029875;28;20018;-71
2023/06/11 06:49:55;;;;;;;11.70;8.30;;;;;;;-146.27;58.44;79998.44;5029886;28;20067;-71
2023/06/11 06:52:21;;;;;;;10.35;7.50;;;;;;;-146.27;58.20;80024.53;5028826;28;20029;-70
2023/06/11 06:54:48;;;;;;;10.45;7.60;;;;;;;-146.27;57.47;79974.34;5032645;28;20075;-72
2023/06/11 06:57:13;;;;;;;15.38;8.25;;;;;;;-146.27;57.49;79936.19;5032349;28;20025;-71
2023/06/11 06:59:39;;;;;;;8.30;7.22;;;;;;;-146.27;57.19;79898.06;5031952;28;20477;-72
2023/06/11 07:02:05;;;;;;;9.52;7.25;;;;;;;-146.27;58.11;79890.03;5029534;28;20029;-71
2023/06/11 07:04:31;;;;;;;14.13;7.70;;;;;;;-146.27;57.12;79875.97;5035922;28;20083;-71
2023/06/11 07:06:56;;;;;;;7.55;6.85;;;;;;;-146.27;56.41;79833.81;5018633;28;20500;-71
2023/06/11 07:09:21;;;;;;;10.10;7.78;;;;;;;-146.27;57.22;79821.78;5027047;28;20409;-71
2023/06/11 07:11:48;;;;;;;10.32;6.70;;;;;;;-146.27;56.66;79741.47;5025419;28;20473;-71
2023/06/11 07:14:14;;;;;;;8.13;7.32;;;;;;;-146.27;55.93;79741.47;5041178;28;20444;-71
2023/06/11 07:16:39;;;;;;;9.85;7.15;;;;;;;-146.27;56.12;79715.38;5037290;28;20064;-71
2023/06/11 07:19:05;;;;;;;9.27;7.20;;;;;;;-146.27;55.09;79695.31;5027642;28;20477;-72
2023/06/11 07:21:30;;;;;;;10.45;6.97;;;;;;;-146.27;55.21;79667.19;5029706;28;20029;-71
2023/06/11 07:23:57;;;;;;;15.30;7.63;;;;;;;-146.27;54.23;79617.00;5032169;28;20037;-72
2023/06/11 07:26:22;;;;;;;11.57;7.55;;;;;;;-146.27;53.23;79637.09;5031833;28;20029;-71
2023/06/11 07:28:48;;;;;;;10.43;7.45;;;;;;;-146.27;53.38;79576.88;5026972;28;20026;-71
2023/06/11 07:31:13;;;;;;;9.70;7.57;;;;;;;-146.27;52.06;79568.84;5032347;28;20369;-71
2023/06/11 07:33:41;;;;;;;13.38;6.93;;;;;;;-146.27;51.03;79504.59;5032729;28;20036;-72
2023/06/11 07:36:06;;;;;;;7.95;7.07;;;;;;;-146.27;50.79;79546.75;5032597;28;20030;-71
2023/06/11 07:38:32;;;;;;;8.27;6.80;;;;;;;-146.27;50.70;79484.53;5024241;28;20038;-71
2023/06/11 07:40:57;;;;;;;14.27;7.38;;;;;;;-146.27;50.56;79486.53;5028031;28;20033;-71
2023/06/11 07:43:22;;;;;;;10.70;7.65;;;;;;;-146.27;51.52;79448.38;5018602;28;20083;-71
2023/06/11 07:45:48;;;;;;;8.85;7.35;;;;;;;-146.27;51.41;79418.28;5023455;28;20037;-70
2023/06/11 07:48:13;;;;;;;10.45;7.20;;;;;;;-146.27;51.01;79422.28;5030004;28;20512;-70
2023/06/11 07:50:38;;;;;;;11.50;6.85;;;;;;;-146.27;50.19;79338.00;5018008;28;20315;-70
2023/06/11 07:53:04;;;;;;;9.13;7.25;;;;;;;-146.27;51.21;79329.97;5022666;28;20424;-69
2023/06/11 07:55:30;;;;;;;10.85;7.10;;;;;;;-146.27;50.56;79235.63;5030573;28;20030;-71
2023/06/11 07:57:55;;;;;;;16.85;7.65;;;;;;;-146.27;50.87;79267.72;5030870;28;20040;-74
2023/06/11 08:00:22;;;;;;;12.88;7.38;;;;;;;-146.27;49.89;79195.47;5026726;28;20022;-71
2023/06/11 08:02:47;;;;;;;8.05;6.00;;;;;;;-146.27;50.08;79157.34;5029356;28;20040;-70
2023/06/11 08:05:17;;;;;;;8.52;7.22;;;;;;;-146.27;49.63;79169.38;5031151;28;20029;-70
2023/06/11 08:07:47;;;;;;;8.45;6.95;;;;;;;-146.27;49.75;79083.06;5031028;28;20029;-70
2023/06/11 08:10:13;;;;;;;8.52;7.40;;;;;;;-146.27;49.76;79063.00;5030336;28;20041;-71
2023/06/11 08:12:39;;;;;;;9.32;7.00;;;;;;;-146.27;51.35;79036.91;5029214;28;20029;-70
2023/06/11 08:15:04;;;;;;;8.80;6.60;;;;;;;-146.27;50.55;78978.69;5030946;28;20116;-71
2023/06/11 08:17:30;;;;;;;9.50;6.82;;;;;;;-146.27;48.93;78958.63;5031185;28;20025;-71
2023/06/11 08:19:55;;;;;;;9.70;7.30;;;;;;;-146.27;51.27;78918.50;5032500;28;20127;-72
2023/06/11 08:22:20;;;;;;;9.38;7.85;;;;;;;-146.27;51.86;78878.34;5031534;28;20033;-71
2023/06/11 08:24:46;;;;;;;10.25;7.65;;;;;;;-146.27;51.18;78850.25;5037884;28;20029;-73
2023/06/11 08:27:12;;;;;;;9.48;7.10;;;;;;;-146.27;50.96;78751.91;5031125;28;20325;-71
2023/06/11 08:29:37;;;;;;;10.20;7.38;;;;;;;-146.27;51.65;78713.78;5035398;28;20498;-71
2023/06/11 08:32:03;;;;;;;9.90;7.03;;;;;;;-146.27;51.27;78759.94;5027194;28;20026;-71
2023/06/11 08:34:29;;;;;;;8.52;7.38;;;;;;;-146.27;50.68;78667.63;5026750;28;20029;-72
2023/06/11 08:36:56;;;;;;;11.18;8.20;;;;;;;-146.27;51.17;78609.41;5033649;28;20025;-71
2023/06/11 08:39:21;;;;;;;12.13;7.65;;;;;;;-146.27;49.46;78629.47;5027855;28;20487;-68
2023/06/11 08:41:47;;;;;;;9.05;6.88;;;;;;;-146.27;50.22;78561.25;5035674;28;20389;-68
2023/06/11 08:44:12;;;;;;;9.73;7.90;;;;;;;-146.27;49.94;78535.16;5022759;28;20156;-68
2023/06/11 08:46:38;;;;;;;8.32;6.85;;;;;;;-146.27;50.42;78553.22;5022925;28;20021;-69
2023/06/11 08:49:06;;;;;;;14.98;7.03;;;;;;;-146.27;49.85;78478.97;5030862;28;20026;-70
2023/06/11 08:51:39;;;;;;;10.63;7.70;;;;;;;-146.27;49.87;78442.84;5041514;28;20025;-70
2023/06/11 08:54:08;;;;;;;13.23;8.07;;;;;;;-146.27;49.18;78394.69;5038005;28;20060;-70
2023/06/11 08:56:35;;;;;;;9.65;6.75;;;;;;;-146.27;49.68;78372.59;5040288;28;20060;-70
2023/06/11 08:59:01;;;;;;;12.48;7.75;;;;;;;-146.27;48.00;78336.47;5032712;28;20092;-72
2023/06/11 09:01:27;;;;;;;9.82;8.23;;;;;;;-146.27;47.79;78384.66;5026424;28;20034;-70
2023/06/11 09:03:52;;;;;;;10.20;7.20;;;;;;;-146.27;48.11;78352.53;5032049;28;20473;-70
2023/06/11 09:06:18;;;;;;;9.88;7.03;;;;;;;-146.27;48.79;78284.31;5033543;28;20155;-70
2023/06/11 09:08:56;;;;;;;14.98;7.38;;;;;;;-146.27;49.17;78224.09;5028020;28;20048;-70
2023/06/11 09:11:21;;;;;;;8.18;7.20;;;;;;;-146.27;50.68;78155.88;5038463;28;20036;-70
2023/06/11 09:13:47;;;;;;;8.10;7.30;;;;;;;-146.27;48.38;78143.84;5028517;28;20026;-71
2023/06/11 09:16:12;;;;;;;11.38;6.82;;;;;;;-146.27;47.23;78083.63;5039062;28;20025;-71
2023/06/11 09:18:42;;;;;;;8.65;7.15;;;;;;;-146.27;47.88;78075.59;5025376;28;20792;-71
2023/06/11 09:21:11;;;;;;;9.65;6.50;;;;;;;-146.27;48.32;77985.31;5032453;28;20091;-70
2023/06/11 09:23:37;;;;;;;8.15;6.72;;;;;;;-146.27;47.05;77913.06;5035437;28;20543;-70
2023/06/11 09:26:03;;;;;;;10.20;7.38;;;;;;;-146.27;46.91;77895.00;5026891;28;20476;-71
2023/06/11 09:28:34;;;;;;;9.95;7.05;;;;;;;-146.27;46.52;77794.69;5026487;28;20037;-70
2023/06/11 09:31:01;;;;;;;10.52;6.55;;;;;;;-146.27;45.70;77726.47;5030062;28;20524;-71
2023/06/11 09:33:27;;;;;;;12.63;7.43;;;;;;;-146.27;45.90;77756.56;5033836;28;20032;-70
2023/06/11 09:35:54;;;;;;;8.07;7.28;;;;;;;-146.27;46.66;77644.19;5029443;28;20409;-68
2023/06/11 09:38:21;;;;;;;9.52;6.00;;;;;;;-146.27;45.21;77674.31;5031143;28;20052;-70
2023/06/11 09:40:48;;;;;;;10.18;6.68;;;;;;;-146.27;45.53;77630.16;5028777;28;20033;-69
2023/06/11 09:43:14;;;;;;;7.85;6.68;;;;;;;-146.27;46.03;77511.78;5030689;28;20021;-69
2023/06/11 09:45:41;;;;;;;13.18;7.22;;;;;;;-146.27;44.14;77567.97;5031709;28;20080;-68
2023/06/11 09:48:12;;;;;;;11.20;7.22;;;;;;;-146.27;42.89;77553.91;5031871;28;20053;-69
2023/06/11 09:50:38;;;;;;;12.35;7.13;;;;;;;-146.27;44.51;77519.81;5032702;28;20029;-70
2023/06/11 09:53:04;;;;;;;7.30;6.22;;;;;;;-146.27;44.27;77437.53;5032749;28;20029;-71
2023/06/11 09:55:36;;;;;;;9.02;7.43;;;;;;;-146.27;43.11;77377.34;5033713;28;20435;-71
2023/06/11 09:58:04;;;;;;;8.17;7.43;;;;;;;-146.27;42.58;77395.41;5030446;28;20025;-71
2023/06/11 10:00:30;;;;;;;8.77;7.03;;;;;;;-146.27;43.29;77303.13;5030810;28;20546;-71
2023/06/11 10:02:57;;;;;;;8.45;6.15;;;;;;;-146.27;44.00;77182.75;5022511;28;20064;-71
2023/06/11 10:05:23;;;;;;;7.72;6.22;;;;;;;-146.27;42.97;77122.56;5029492;28;20040;-71
2023/06/11 10:07:59;;;;;;;12.43;6.90;;;;;;;-146.27;43.04;77040.31;5031046;28;20021;-72
2023/06/11 10:10:27;;;;;;;8.10;6.45;;;;;;;-146.27;41.19;77012.22;5040057;28;20647;-71
2023/06/11 10:12:53;;;;;;;7.28;5.88;;;;;;;-146.27;42.58;76931.97;5038781;28;20580;-73
2023/06/11 10:15:24;;;;;;;7.43;5.88;;;;;;;-146.27;41.32;76919.94;5029425;28;20028;-72
2023/06/11 10:17:51;;;;;;;8.73;6.43;;;;;;;-146.27;41.55;76897.88;5042632;28;20029;-72
2023/06/11 10:20:31;;;;;;;11.48;5.82;;;;;;;-146.27;41.56;76819.66;5028246;28;20434;-72
2023/06/11 10:23:09;;;;;;;6.35;5.70;;;;;;;-146.27;41.07;76719.34;5032711;28;20143;-73
2023/06/11 10:25:37;;;;;;;10.70;5.85;;;;;;;-146.27;40.81;76619.06;5022751;28;20120;-72
2023/06/11 10:28:03;;;;;;;6.80;6.20;;;;;;;-146.27;39.79;76556.88;5029493;28;20037;-72
2023/06/11 10:30:28;;;;;;;7.70;6.20;;;;;;;-146.27;40.25;76530.78;5033895;28;20025;-72
2023/06/11 10:32:56;;;;;;;7.30;5.72;;;;;;;-146.27;39.80;76406.44;5042603;28;20025;-72
2023/06/11 10:35:24;;;;;;;8.32;5.97;;;;;;;-146.27;40.53;76235.94;5044508;28;20438;-72
2023/06/11 10:38:00;;;;;;;13.60;6.22;;;;;;;-146.27;39.65;76069.47;5033783;28;20037;-72
2023/06/11 10:40:38;;;;;;;6.00;5.18;;;;;;;-146.27;39.21;76029.34;5036375;28;20128;-69
2023/06/11 10:43:21;;;;;;;7.80;5.65;;;;;;;-146.27;37.96;75991.25;5026523;28;20088;-65
2023/06/11 10:46:01;;;;;;;6.68;5.68;;;;;;;-146.27;39.25;75884.94;5011395;28;20029;-65
2023/06/11 10:48:28;;;;;;;7.32;5.72;;;;;;;-146.27;38.66;75840.81;5030842;28;20028;-65
2023/06/11 10:51:03;;;;;;;8.35;5.93;;;;;;;-146.27;39.71;75694.44;5027836;28;20034;-67
2023/06/11 10:53:40;;;;;;;7.55;5.50;;;;;;;-146.27;38.56;75622.22;5026485;28;20029;-68
2023/06/11 10:56:06;;;;;;;7.53;5.75;;;;;;;-146.27;38.31;75640.28;5025676;28;20094;-68
2023/06/11 10:58:33;;;;;;;7.30;5.53;;;;;;;-146.27;37.59;75566.09;5028432;28;20078;-69
2023/06/11 11:00:59;;;;;;;7.45;5.20;;;;;;;-146.27;37.14;75566.09;5030457;28;20064;-68
2023/06/11 11:03:26;;;;;;;8.70;5.80;;;;;;;-146.27;38.41;75491.88;5028514;28;20108;-68
2023/06/11 11:05:53;;;;;;;9.07;5.53;;;;;;;-146.27;38.21;75347.50;5027924;28;20525;-68
2023/06/11 11:08:19;;;;;;;6.82;5.25;;;;;;;-146.27;36.58;75319.44;5025658;28;20420;-69
2023/06/11 11:10:45;;;;;;;6.63;5.45;;;;;;;-146.27;36.81;75171.03;5025586;28;20056;-68
2023/06/11 11:13:10;;;;;;;10.48;5.80;;;;;;;-146.27;37.13;75201.13;5027138;28;20473;-69